createdAt,value
2023-02-11T00:00:14.851Z,0.50
2023-02-11T00:02:41.874Z,0.70
2023-02-11T00:05:08.916Z,0.93
2023-02-11T00:07:35.856Z,1.07
2023-02-11T00:10:03.055Z,0.89
2023-02-11T00:12:30.005Z,0.79
2023-02-11T00:14:57.031Z,0.73
2023-02-11T00:17:23.938Z,0.73
2023-02-11T00:19:51.677Z,0.81
2023-02-11T00:22:18.660Z,0.76
2023-02-11T00:24:45.610Z,0.55
2023-02-11T00:27:12.572Z,0.54
2023-02-11T00:29:39.594Z,0.51
2023-02-11T00:32:06.637Z,0.41
2023-02-11T00:34:33.746Z,0.31
2023-02-11T00:37:03.070Z,0.19
2023-02-11T00:39:30.256Z,0.13
2023-02-11T00:41:57.716Z,0.06
2023-02-11T00:44:24.678Z,-0.10
2023-02-11T00:46:51.689Z,-0.21
2023-02-11T00:49:18.728Z,-0.48
2023-02-11T00:51:45.776Z,-0.66
2023-02-11T00:54:12.809Z,-0.70
2023-02-11T00:56:39.797Z,-0.99
2023-02-11T00:59:06.696Z,-0.93
2023-02-11T01:01:34.789Z,-0.68
2023-02-11T01:04:01.963Z,-0.56
2023-02-11T01:06:28.936Z,-0.43
2023-02-11T01:08:55.887Z,-0.27
2023-02-11T01:11:22.903Z,-0.03
2023-02-11T01:13:50.174Z,0.20
2023-02-11T01:16:17.429Z,0.30
2023-02-11T01:18:45.625Z,0.35
2023-02-11T01:21:12.632Z,0.43
2023-02-11T01:23:39.672Z,0.26
2023-02-11T01:26:06.587Z,0.17
2023-02-11T01:28:33.744Z,0.06
2023-02-11T01:31:01.675Z,0.01
2023-02-11T01:33:28.906Z,-0.02
2023-02-11T01:35:55.778Z,0.10
2023-02-11T01:38:25.110Z,0.15
2023-02-11T01:40:55.003Z,0.40
2023-02-11T01:43:23.394Z,0.63
2023-02-11T01:46:01.600Z,0.46
2023-02-11T01:48:36.425Z,0.36
2023-02-11T01:51:07.046Z,-0.01
2023-02-11T01:53:54.072Z,-0.20
2023-02-11T01:56:40.179Z,-0.20
2023-02-11T01:59:11.692Z,-0.15
2023-02-11T02:01:38.684Z,-0.01
2023-02-11T02:04:05.687Z,0.13
2023-02-11T02:06:36.275Z,0.17
2023-02-11T02:09:11.524Z,0.49
2023-02-11T02:11:38.482Z,0.72
2023-02-11T02:14:05.469Z,0.38
2023-02-11T02:16:34.754Z,-0.02
2023-02-11T02:19:26.886Z,-0.74
2023-02-11T02:21:53.770Z,-0.92
2023-02-11T02:24:56.646Z,-0.65
2023-02-11T02:27:45.019Z,-0.46
2023-02-11T02:30:40.145Z,-0.48
2023-02-11T02:33:23.047Z,-0.19
2023-02-11T02:35:55.290Z,-0.14
2023-02-11T02:38:30.666Z,-0.26
2023-02-11T02:41:03.961Z,-0.50
2023-02-11T02:43:30.942Z,-0.58
2023-02-11T02:46:19.704Z,-0.73
2023-02-11T02:48:47.168Z,-0.72
2023-02-11T02:51:37.899Z,-0.61
2023-02-11T02:54:41.375Z,-0.22
2023-02-11T02:57:17.764Z,-0.20
2023-02-11T03:00:10.865Z,-0.85
2023-02-11T03:02:40.786Z,-1.16
2023-02-11T03:05:45.268Z,-1.21
2023-02-11T03:08:17.991Z,-0.84
2023-02-11T03:10:50.039Z,-0.74
2023-02-11T03:13:18.222Z,-0.65
2023-02-11T03:15:46.930Z,-0.69
2023-02-11T03:18:15.882Z,-0.52
2023-02-11T03:20:43.815Z,-0.32
2023-02-11T03:23:10.668Z,-0.29
2023-02-11T03:25:49.739Z,-0.13
2023-02-11T03:28:33.089Z,-0.11
2023-02-11T03:31:27.287Z,-0.08
2023-02-11T03:34:12.797Z,-0.02
2023-02-11T03:36:47.272Z,-0.17
2023-02-11T03:39:16.620Z,-0.38
2023-02-11T03:41:43.579Z,-0.26
2023-02-11T03:44:10.515Z,-0.21
2023-02-11T03:46:38.120Z,-0.05
2023-02-11T03:49:08.778Z,0.36
2023-02-11T03:51:35.711Z,0.04
2023-02-11T03:54:04.018Z,0.08
2023-02-11T03:56:33.174Z,0.13
2023-02-11T03:59:00.120Z,0.27
2023-02-11T04:01:27.114Z,0.38
2023-02-11T04:03:54.062Z,0.41
2023-02-11T04:06:21.086Z,0.47
2023-02-11T04:08:48.135Z,0.39
2023-02-11T04:11:15.087Z,0.77
2023-02-11T04:13:42.021Z,0.40
2023-02-11T04:16:09.080Z,0.31
2023-02-11T04:18:36.200Z,0.22
2023-02-11T04:21:03.156Z,0.35
2023-02-11T04:23:30.068Z,0.51
2023-02-11T04:25:57.019Z,0.70
2023-02-11T04:28:24.109Z,0.43
2023-02-11T04:30:51.392Z,0.34
2023-02-11T04:33:18.352Z,0.38
2023-02-11T04:35:45.291Z,0.55
2023-02-11T04:38:12.237Z,0.66
2023-02-11T04:40:39.291Z,0.23
2023-02-11T04:43:06.373Z,-0.12
2023-02-11T04:45:33.883Z,0.28
2023-02-11T04:48:03.084Z,0.43
2023-02-11T04:50:30.007Z,0.71
2023-02-11T04:52:57.021Z,1.02
2023-02-11T04:55:23.907Z,0.63
2023-02-11T04:57:50.843Z,0.89
2023-02-11T05:00:17.865Z,0.68
2023-02-11T05:02:44.792Z,0.80
2023-02-11T05:05:11.737Z,0.94
2023-02-11T05:07:38.655Z,0.76
2023-02-11T05:10:05.838Z,0.37
2023-02-11T05:12:32.813Z,-0.05
2023-02-11T05:14:59.737Z,0.04
2023-02-11T05:17:26.723Z,0.02
2023-02-11T05:19:53.684Z,0.42
2023-02-11T05:22:22.055Z,1.07
2023-02-11T05:24:49.571Z,1.12
2023-02-11T05:27:16.549Z,1.31
2023-02-11T05:29:43.441Z,1.19
2023-02-11T05:32:10.441Z,1.19
2023-02-11T05:34:37.696Z,1.12
2023-02-11T05:37:04.677Z,1.10
2023-02-11T05:39:31.631Z,0.84
2023-02-11T05:41:58.670Z,0.67
2023-02-11T05:44:25.620Z,0.91
2023-02-11T05:46:52.608Z,1.24
2023-02-11T05:49:19.558Z,1.35
2023-02-11T05:51:46.600Z,1.65
2023-02-11T05:54:13.894Z,1.60
2023-02-11T05:56:43.123Z,1.56
2023-02-11T05:59:13.588Z,1.63
2023-02-11T06:01:40.650Z,1.40
2023-02-11T06:04:07.589Z,1.45
2023-02-11T06:06:34.526Z,1.68
2023-02-11T06:09:01.538Z,1.65
2023-02-11T06:11:28.506Z,1.36
2023-02-11T06:13:55.517Z,1.42
2023-02-11T06:16:22.579Z,1.64
2023-02-11T06:18:49.518Z,1.12
2023-02-11T06:21:16.434Z,1.66
2023-02-11T06:23:43.745Z,1.91
2023-02-11T06:26:17.500Z,2.07
2023-02-11T06:28:44.615Z,2.18
2023-02-11T06:31:12.102Z,2.25
2023-02-11T06:33:39.295Z,1.53
2023-02-11T06:36:16.742Z,1.37
2023-02-11T06:38:43.735Z,1.70
2023-02-11T06:41:13.874Z,1.55
2023-02-11T06:43:40.998Z,1.60
2023-02-11T06:46:08.055Z,1.87
2023-02-11T06:48:35.074Z,1.72
2023-02-11T06:51:06.202Z,1.91
2023-02-11T06:53:35.875Z,1.96
2023-02-11T06:56:07.418Z,2.03
2023-02-11T06:58:34.207Z,2.08
2023-02-11T07:01:06.785Z,1.42
2023-02-11T07:03:36.174Z,1.79
2023-02-11T07:06:05.524Z,1.83
2023-02-11T07:08:35.960Z,1.83
2023-02-11T07:11:11.874Z,1.70
2023-02-11T07:13:38.909Z,1.41
2023-02-11T07:16:07.383Z,1.68
2023-02-11T07:18:34.427Z,2.35
2023-02-11T07:21:05.689Z,2.38
2023-02-11T07:23:33.152Z,2.44
2023-02-11T07:26:09.838Z,2.60
2023-02-11T07:28:37.514Z,2.31
2023-02-11T07:31:12.316Z,2.26
2023-02-11T07:33:39.337Z,1.58
2023-02-11T07:36:07.133Z,1.21
2023-02-11T07:38:34.378Z,1.43
2023-02-11T07:41:02.289Z,1.89
2023-02-11T07:43:29.457Z,2.14
2023-02-11T07:45:56.580Z,2.68
2023-02-11T07:48:23.522Z,2.52
2023-02-11T07:50:50.631Z,2.00
2023-02-11T07:53:17.612Z,2.33
2023-02-11T07:55:44.662Z,2.10
2023-02-11T07:58:11.536Z,2.21
2023-02-11T08:00:38.534Z,3.05
2023-02-11T08:03:07.891Z,3.05
2023-02-11T08:05:38.240Z,3.05
2023-02-11T08:08:05.226Z,3.35
2023-02-11T08:10:32.285Z,3.44
2023-02-11T08:12:59.215Z,2.77
2023-02-11T08:15:26.259Z,1.99
2023-02-11T08:17:53.163Z,2.19
2023-02-11T08:20:20.246Z,2.66
2023-02-11T08:22:47.188Z,2.90
2023-02-11T08:25:14.147Z,1.00
2023-02-11T08:27:41.102Z,2.20
2023-02-11T08:30:08.491Z,2.63
2023-02-11T08:32:35.633Z,2.66
2023-02-11T08:35:02.579Z,3.24
2023-02-11T08:37:32.008Z,3.48
2023-02-11T08:39:59.923Z,3.40
2023-02-11T08:42:26.918Z,2.08
2023-02-11T08:44:53.811Z,2.23
2023-02-11T08:47:22.734Z,2.28
2023-02-11T08:49:49.800Z,2.51
2023-02-11T08:52:16.704Z,2.58
2023-02-11T08:54:43.612Z,0.82
2023-02-11T08:57:10.625Z,1.54
2023-02-11T08:59:40.079Z,2.21
2023-02-11T09:02:07.645Z,1.77
2023-02-11T09:04:34.629Z,2.48
2023-02-11T09:07:01.540Z,1.56
2023-02-11T09:09:28.561Z,2.37
2023-02-11T09:11:57.375Z,2.29
2023-02-11T09:14:24.761Z,2.96
2023-02-11T09:16:51.979Z,2.25
2023-02-11T09:19:19.238Z,2.49
2023-02-11T09:21:46.697Z,2.92
2023-02-11T09:24:13.708Z,3.49
2023-02-11T09:26:41.391Z,3.76
2023-02-11T09:29:08.386Z,4.42
2023-02-11T09:31:35.380Z,4.05
2023-02-11T09:34:04.464Z,3.90
2023-02-11T09:36:33.097Z,4.65
2023-02-11T09:39:01.077Z,4.61
2023-02-11T09:42:00.027Z,4.08
2023-02-11T09:44:28.538Z,4.65
2023-02-11T09:47:03.052Z,3.44
2023-02-11T09:49:36.503Z,3.97
2023-02-11T09:52:06.693Z,4.22
2023-02-11T09:54:59.264Z,4.76
2023-02-11T09:57:33.488Z,4.71
2023-02-11T10:00:01.641Z,4.39
2023-02-11T10:03:04.817Z,4.92
2023-02-11T10:05:59.223Z,5.74
2023-02-11T10:08:26.129Z,5.34
2023-02-11T10:10:57.825Z,5.53
2023-02-11T10:14:04.257Z,6.00
2023-02-11T10:16:58.037Z,4.68
2023-02-11T10:19:27.837Z,4.91
2023-02-11T10:22:15.700Z,5.02
2023-02-11T10:24:42.840Z,5.57
2023-02-11T10:27:16.778Z,4.88
2023-02-11T10:29:53.574Z,5.41
2023-02-11T10:32:40.268Z,6.53
2023-02-11T10:35:18.878Z,6.89
2023-02-11T10:37:45.836Z,6.14
2023-02-11T10:40:20.516Z,6.35
2023-02-11T10:42:55.468Z,5.98
2023-02-11T10:45:43.846Z,6.07
2023-02-11T10:48:39.356Z,6.04
2023-02-11T10:51:29.128Z,5.82
2023-02-11T10:54:05.396Z,5.55
2023-02-11T10:56:36.586Z,6.36
2023-02-11T10:59:23.607Z,5.04
2023-02-11T11:01:53.229Z,5.34
2023-02-11T11:04:37.392Z,5.71
2023-02-11T11:07:22.473Z,6.31
2023-02-11T11:09:49.363Z,6.53
2023-02-11T11:12:57.588Z,7.08
2023-02-11T11:15:26.529Z,5.82
2023-02-11T11:18:20.910Z,6.49
2023-02-11T11:20:56.171Z,6.51
2023-02-11T11:23:24.523Z,6.75
2023-02-11T11:26:11.374Z,6.20
2023-02-11T11:28:50.187Z,7.15
2023-02-11T11:31:23.717Z,7.04
2023-02-11T11:33:51.627Z,7.58
2023-02-11T11:36:21.479Z,8.19
2023-02-11T11:39:02.398Z,7.19
2023-02-11T11:41:31.283Z,7.04
2023-02-11T11:44:25.849Z,6.60
2023-02-11T11:47:37.396Z,6.63
2023-02-11T11:50:27.497Z,6.37
2023-02-11T11:53:04.561Z,7.43
2023-02-11T11:55:39.214Z,5.87
2023-02-11T11:58:09.662Z,7.02
2023-02-11T12:00:58.313Z,6.88
2023-02-11T12:03:32.642Z,5.74
2023-02-11T12:06:14.570Z,6.24
2023-02-11T12:08:55.657Z,6.35
2023-02-11T12:11:44.336Z,6.54
2023-02-11T12:14:33.632Z,7.12
2023-02-11T12:17:11.454Z,7.01
2023-02-11T12:19:41.337Z,7.39
2023-02-11T12:22:36.405Z,7.46
2023-02-11T12:25:21.574Z,7.35
2023-02-11T12:28:14.549Z,7.71
2023-02-11T12:31:00.072Z,7.23
2023-02-11T12:33:44.800Z,6.89
2023-02-11T12:36:24.332Z,6.50
2023-02-11T12:38:57.112Z,7.34
2023-02-11T12:41:56.616Z,7.12
2023-02-11T12:44:51.842Z,6.11
2023-02-11T12:47:25.684Z,7.12
2023-02-11T12:49:55.232Z,6.51
2023-02-11T12:52:51.121Z,5.85
2023-02-11T12:55:28.440Z,6.93
2023-02-11T12:57:56.940Z,6.91
2023-02-11T13:00:25.622Z,7.29
2023-02-11T13:03:11.302Z,8.03
2023-02-11T13:05:41.727Z,8.10
2023-02-11T13:08:17.092Z,7.47
2023-02-11T13:10:50.995Z,6.63
2023-02-11T13:13:39.440Z,7.37
2023-02-11T13:16:08.150Z,7.81
2023-02-11T13:18:49.705Z,7.86
2023-02-11T13:21:16.603Z,7.83
2023-02-11T13:24:02.917Z,7.20
2023-02-11T13:26:43.812Z,7.44
2023-02-11T13:29:34.763Z,6.93
2023-02-11T13:32:10.636Z,7.28
2023-02-11T13:34:43.699Z,8.08
2023-02-11T13:37:23.356Z,7.35
2023-02-11T13:40:01.511Z,7.12
2023-02-11T13:42:29.305Z,6.85
2023-02-11T13:44:56.254Z,7.83
2023-02-11T13:47:33.414Z,7.45
2023-02-11T13:50:00.861Z,7.41
2023-02-11T13:52:30.435Z,7.78
2023-02-11T13:55:02.061Z,6.96
2023-02-11T13:57:32.294Z,7.81
2023-02-11T14:00:00.990Z,6.92
2023-02-11T14:02:54.212Z,7.73
2023-02-11T14:05:48.657Z,8.01
2023-02-11T14:08:37.649Z,8.60
2023-02-11T14:11:10.962Z,8.42
2023-02-11T14:14:16.415Z,8.40
2023-02-11T14:16:58.426Z,7.94
2023-02-11T14:19:37.926Z,8.54
2023-02-11T14:22:18.416Z,8.69
2023-02-11T14:24:53.360Z,8.96
2023-02-11T14:27:42.190Z,8.74
2023-02-11T14:30:15.112Z,8.65
2023-02-11T14:33:11.465Z,8.86
2023-02-11T14:35:50.482Z,8.98
2023-02-11T14:38:17.357Z,9.13
2023-02-11T14:40:50.233Z,9.24
2023-02-11T14:43:20.374Z,9.49
2023-02-11T14:45:50.661Z,9.12
2023-02-11T14:48:18.848Z,8.82
2023-02-11T14:50:48.622Z,8.94
2023-02-11T14:53:21.608Z,7.49
2023-02-11T14:55:52.594Z,8.29
2023-02-11T14:58:19.553Z,8.75
2023-02-11T15:00:57.378Z,8.67
2023-02-11T15:03:29.363Z,8.86
2023-02-11T15:06:19.776Z,8.00
2023-02-11T15:09:01.035Z,8.33
2023-02-11T15:11:30.422Z,8.25
2023-02-11T15:13:57.680Z,8.50
2023-02-11T15:16:25.630Z,8.22
2023-02-11T15:18:58.578Z,8.18
2023-02-11T15:21:30.289Z,8.33
2023-02-11T15:24:21.006Z,7.94
2023-02-11T15:27:03.905Z,7.96
2023-02-11T15:29:38.479Z,8.42
2023-02-11T15:32:15.308Z,8.46
2023-02-11T15:34:43.343Z,7.72
2023-02-11T15:37:13.949Z,7.19
2023-02-11T15:39:41.619Z,7.60
2023-02-11T15:42:28.363Z,8.18
2023-02-11T15:45:08.621Z,8.26
2023-02-11T15:47:35.657Z,8.46
2023-02-11T15:50:02.669Z,8.56
2023-02-11T15:52:29.621Z,9.12
2023-02-11T15:54:56.860Z,8.79
2023-02-11T15:57:23.850Z,9.04
2023-02-11T15:59:54.666Z,9.52
2023-02-11T16:02:31.678Z,9.47
2023-02-11T16:05:06.278Z,8.80
2023-02-11T16:07:47.391Z,8.35
2023-02-11T16:10:21.580Z,7.84
2023-02-11T16:12:56.122Z,7.51
2023-02-11T16:15:38.284Z,7.55
2023-02-11T16:18:13.708Z,7.81
2023-02-11T16:20:40.674Z,7.99
2023-02-11T16:23:07.731Z,8.17
2023-02-11T16:25:35.209Z,8.38
2023-02-11T16:28:02.395Z,8.67
2023-02-11T16:30:37.720Z,7.99
2023-02-11T16:33:05.597Z,8.53
2023-02-11T16:35:32.647Z,8.21
2023-02-11T16:37:59.597Z,8.04
2023-02-11T16:40:26.601Z,8.53
2023-02-11T16:42:53.696Z,8.12
2023-02-11T16:45:20.944Z,7.38
2023-02-11T16:47:48.047Z,6.72
2023-02-11T16:50:22.637Z,6.88
2023-02-11T16:52:49.829Z,6.42
2023-02-11T16:55:16.818Z,6.99
2023-02-11T16:57:43.770Z,7.01
2023-02-11T17:00:11.612Z,7.81
2023-02-11T17:02:38.555Z,8.15
2023-02-11T17:05:07.694Z,8.14
2023-02-11T17:07:34.639Z,7.98
2023-02-11T17:10:02.246Z,7.44
2023-02-11T17:12:29.205Z,8.08
2023-02-11T17:14:56.275Z,8.36
2023-02-11T17:17:23.920Z,8.78
2023-02-11T17:19:51.455Z,9.02
2023-02-11T17:22:18.818Z,8.89
2023-02-11T17:24:45.859Z,9.10
2023-02-11T17:27:12.910Z,8.95
2023-02-11T17:29:39.851Z,8.73
2023-02-11T17:32:06.870Z,8.83
2023-02-11T17:34:33.846Z,8.62
2023-02-11T17:37:03.183Z,8.54
2023-02-11T17:39:30.133Z,8.45
2023-02-11T17:41:57.131Z,8.56
2023-02-11T17:44:24.041Z,8.14
2023-02-11T17:46:51.066Z,6.92
2023-02-11T17:49:18.005Z,6.40
2023-02-11T17:51:45.162Z,6.61
2023-02-11T17:54:13.726Z,7.16
2023-02-11T17:56:41.107Z,6.34
2023-02-11T17:59:08.650Z,6.37
2023-02-11T18:01:36.435Z,6.32
2023-02-11T18:04:03.441Z,6.37
2023-02-11T18:06:30.428Z,6.14
2023-02-11T18:08:59.767Z,6.20
2023-02-11T18:11:27.942Z,6.53
2023-02-11T18:13:55.129Z,6.05
2023-02-11T18:16:23.021Z,6.71
2023-02-11T18:18:51.226Z,6.83
2023-02-11T18:21:19.719Z,7.25
2023-02-11T18:23:47.164Z,7.84
2023-02-11T18:26:14.614Z,8.12
2023-02-11T18:28:44.523Z,8.47
2023-02-11T18:31:13.945Z,8.56
2023-02-11T18:33:41.108Z,7.96
2023-02-11T18:36:11.816Z,8.23
2023-02-11T18:38:39.247Z,8.08
2023-02-11T18:41:07.613Z,8.03
2023-02-11T18:43:34.954Z,7.48
2023-02-11T18:46:02.599Z,7.46
2023-02-11T18:48:29.668Z,7.68
2023-02-11T18:50:56.627Z,7.79
2023-02-11T18:53:24.724Z,7.45
2023-02-11T18:55:52.559Z,6.87
2023-02-11T18:58:21.449Z,7.31
2023-02-11T19:00:49.419Z,6.49
2023-02-11T19:03:16.902Z,6.46
2023-02-11T19:05:48.513Z,6.95
2023-02-11T19:08:16.001Z,7.31
2023-02-11T19:10:44.465Z,7.23
2023-02-11T19:13:12.057Z,6.95
2023-02-11T19:15:42.640Z,7.15
2023-02-11T19:18:09.836Z,7.61
2023-02-11T19:20:39.523Z,8.04
2023-02-11T19:23:07.094Z,8.31
2023-02-11T19:25:34.627Z,8.42
2023-02-11T19:28:01.653Z,8.13
2023-02-11T19:30:28.805Z,8.20
2023-02-11T19:32:57.328Z,8.07
2023-02-11T19:35:24.829Z,7.73
2023-02-11T19:37:51.847Z,7.89
2023-02-11T19:40:19.289Z,8.37
2023-02-11T19:42:46.261Z,8.45
2023-02-11T19:45:13.189Z,8.60
2023-02-11T19:47:40.124Z,8.75
2023-02-11T19:50:07.780Z,8.47
2023-02-11T19:52:37.076Z,8.42
2023-02-11T19:55:04.165Z,8.44
2023-02-11T19:57:31.106Z,8.53
2023-02-11T19:59:58.156Z,8.61
2023-02-11T20:02:25.124Z,8.49
2023-02-11T20:04:52.410Z,8.61
2023-02-11T20:07:19.354Z,8.55
2023-02-11T20:09:46.307Z,8.50
2023-02-11T20:12:13.840Z,8.63
2023-02-11T20:14:41.358Z,8.73
2023-02-11T20:17:08.367Z,8.80
2023-02-11T20:19:35.334Z,8.64
2023-02-11T20:22:02.317Z,8.71
2023-02-11T20:24:29.326Z,8.76
2023-02-11T20:26:56.585Z,8.82
2023-02-11T20:29:24.507Z,8.91
2023-02-11T20:31:51.533Z,8.72
2023-02-11T20:34:18.852Z,8.68
2023-02-11T20:36:51.991Z,8.44
2023-02-11T20:39:21.897Z,8.55
2023-02-11T20:41:49.063Z,8.69
2023-02-11T20:44:16.081Z,8.83
2023-02-11T20:46:45.941Z,8.69
2023-02-11T20:49:19.048Z,8.81
2023-02-11T20:51:46.210Z,8.89
2023-02-11T20:54:17.966Z,9.10
2023-02-11T20:56:47.844Z,9.06
2023-02-11T20:59:16.472Z,9.09
2023-02-11T21:01:45.797Z,9.00
2023-02-11T21:04:15.329Z,8.87
2023-02-11T21:06:44.766Z,8.79
2023-02-11T21:09:16.571Z,8.57
2023-02-11T21:11:43.609Z,8.54
2023-02-11T21:14:11.145Z,8.46
2023-02-11T21:16:38.290Z,8.47
2023-02-11T21:19:05.441Z,8.26
2023-02-11T21:21:32.445Z,7.88
2023-02-11T21:23:59.392Z,7.83
2023-02-11T21:26:26.485Z,6.83
2023-02-11T21:28:55.163Z,6.61
2023-02-11T21:31:27.630Z,6.42
2023-02-11T21:33:55.460Z,6.77
2023-02-11T21:36:23.238Z,6.18
2023-02-11T21:38:50.218Z,6.83
2023-02-11T21:41:17.939Z,7.09
2023-02-11T21:43:45.070Z,7.24
2023-02-11T21:46:13.242Z,6.53
2023-02-11T21:48:40.222Z,5.59
2023-02-11T21:51:08.766Z,5.61
2023-02-11T21:53:35.763Z,5.66
2023-02-11T21:56:14.116Z,6.17
2023-02-11T21:58:41.158Z,5.66
2023-02-11T22:01:12.037Z,5.99
2023-02-11T22:03:39.251Z,6.26
2023-02-11T22:06:10.253Z,6.25
2023-02-11T22:08:37.779Z,6.92
2023-02-11T22:11:05.689Z,7.47
2023-02-11T22:13:32.877Z,7.54
2023-02-11T22:16:05.327Z,7.91
2023-02-11T22:18:32.424Z,7.41
2023-02-11T22:21:18.699Z,7.64
2023-02-11T22:23:45.847Z,7.84
2023-02-11T22:26:15.320Z,8.36
2023-02-11T22:28:42.694Z,8.56
2023-02-11T22:31:20.722Z,8.37
2023-02-11T22:33:47.843Z,8.44
2023-02-11T22:36:19.987Z,8.70
2023-02-11T22:38:47.067Z,8.86
2023-02-11T22:41:14.212Z,8.86
2023-02-11T22:43:42.154Z,8.55
2023-02-11T22:46:09.566Z,8.35
2023-02-11T22:48:36.613Z,8.56
2023-02-11T22:51:27.311Z,8.72
2023-02-11T22:53:55.982Z,8.80
2023-02-11T22:56:23.110Z,8.81
2023-02-11T22:58:50.311Z,8.82
2023-02-11T23:01:17.577Z,8.79
2023-02-11T23:03:44.653Z,8.66
2023-02-11T23:06:11.649Z,8.56
2023-02-11T23:08:39.792Z,8.75
2023-02-11T23:11:12.142Z,8.82
2023-02-11T23:13:40.032Z,8.74
2023-02-11T23:16:08.699Z,8.53
2023-02-11T23:18:38.930Z,8.61
2023-02-11T23:21:16.576Z,8.79
2023-02-11T23:23:43.729Z,8.80
2023-02-11T23:26:11.769Z,8.49
2023-02-11T23:28:39.480Z,8.55
2023-02-11T23:31:26.547Z,8.62
2023-02-11T23:33:53.633Z,8.87
2023-02-11T23:36:20.975Z,8.79
2023-02-11T23:38:48.088Z,8.62
2023-02-11T23:41:15.277Z,8.57
2023-02-11T23:43:42.397Z,8.15
2023-02-11T23:46:09.512Z,7.94
2023-02-11T23:48:37.941Z,7.82
2023-02-11T23:51:05.160Z,8.03
2023-02-11T23:53:32.116Z,7.95
2023-02-11T23:55:59.105Z,7.52
2023-02-11T23:58:26.044Z,6.27
